sensor_id;sensor_type;location;lat;lon;timestamp;temperature;humidity
6581;DHT22;3324;50.796;7.228;2024-02-16T00:02:05;13.10;99.90
6581;DHT22;3324;50.796;7.228;2024-02-16T00:04:31;13.10;99.90
6581;DHT22;3324;50.796;7.228;2024-02-16T00:06:56;13.10;99.90
6581;DHT22;3324;50.796;7.228;2024-02-16T00:09:22;13.10;99.90
6581;DHT22;3324;50.796;7.228;2024-02-16T00:11:47;13.10;99.90
6581;DHT22;3324;50.796;7.228;2024-02-16T00:14:16;13.10;99.90
6581;DHT22;3324;50.796;7.228;2024-02-16T00:16:41;13.10;99.90
6581;DHT22;3324;50.796;7.228;2024-02-16T00:19:07;13.10;99.90
6581;DHT22;3324;50.796;7.228;2024-02-16T00:21:32;13.10;99.90
6581;DHT22;3324;50.796;7.228;2024-02-16T00:23:58;13.10;99.90
6581;DHT22;3324;50.796;7.228;2024-02-16T00:26:23;13.20;99.90
6581;DHT22;3324;50.796;7.228;2024-02-16T00:28:49;13.20;99.90
6581;DHT22;3324;50.796;7.228;2024-02-16T00:31:14;13.10;99.90
6581;DHT22;3324;50.796;7.228;2024-02-16T00:33:40;13.10;99.90
6581;DHT22;3324;50.796;7.228;2024-02-16T00:36:05;13.10;99.90
6581;DHT22;3324;50.796;7.228;2024-02-16T00:38:31;13.10;99.90
6581;DHT22;3324;50.796;7.228;2024-02-16T00:40:56;13.10;99.90
6581;DHT22;3324;50.796;7.228;2024-02-16T00:43:22;13.10;99.90
6581;DHT22;3324;50.796;7.228;2024-02-16T00:45:47;13.10;99.90
6581;DHT22;3324;50.796;7.228;2024-02-16T00:48:13;13.10;99.90
6581;DHT22;3324;50.796;7.228;2024-02-16T00:50:39;13.20;99.90
6581;DHT22;3324;50.796;7.228;2024-02-16T00:53:04;13.20;99.90
6581;DHT22;3324;50.796;7.228;2024-02-16T00:55:30;13.10;99.90
6581;DHT22;3324;50.796;7.228;2024-02-16T00:57:56;13.20;99.90
6581;DHT22;3324;50.796;7.228;2024-02-16T01:00:21;13.20;99.90
6581;DHT22;3324;50.796;7.228;2024-02-16T01:02:49;13.20;99.90
6581;DHT22;3324;50.796;7.228;2024-02-16T01:05:14;13.20;99.90
6581;DHT22;3324;50.796;7.228;2024-02-16T01:07:43;13.20;99.90
6581;DHT22;3324;50.796;7.228;2024-02-16T01:10:08;13.20;99.90
6581;DHT22;3324;50.796;7.228;2024-02-16T01:12:34;13.20;99.90
6581;DHT22;3324;50.796;7.228;2024-02-16T01:14:59;13.20;99.90
6581;DHT22;3324;50.796;7.228;2024-02-16T01:17:25;13.20;99.90
6581;DHT22;3324;50.796;7.228;2024-02-16T01:19:51;13.20;99.90
6581;DHT22;3324;50.796;7.228;2024-02-16T01:22:16;13.20;99.90
6581;DHT22;3324;50.796;7.228;2024-02-16T01:24:43;13.20;99.90
6581;DHT22;3324;50.796;7.228;2024-02-16T01:27:09;13.20;99.90
6581;DHT22;3324;50.796;7.228;2024-02-16T01:29:35;13.20;99.90
6581;DHT22;3324;50.796;7.228;2024-02-16T01:32:01;13.20;99.90
6581;DHT22;3324;50.796;7.228;2024-02-16T01:34:27;13.20;99.90
6581;DHT22;3324;50.796;7.228;2024-02-16T01:36:55;13.20;99.90
6581;DHT22;3324;50.796;7.228;2024-02-16T01:39:21;13.20;99.90
6581;DHT22;3324;50.796;7.228;2024-02-16T01:41:46;13.10;99.90
6581;DHT22;3324;50.796;7.228;2024-02-16T01:44:12;13.20;99.90
6581;DHT22;3324;50.796;7.228;2024-02-16T01:46:37;13.20;99.90
6581;DHT22;3324;50.796;7.228;2024-02-16T01:49:03;13.20;99.90
6581;DHT22;3324;50.796;7.228;2024-02-16T01:51:29;13.20;99.90
6581;DHT22;3324;50.796;7.228;2024-02-16T01:53:55;13.20;99.90
6581;DHT22;3324;50.796;7.228;2024-02-16T01:56:21;13.20;99.90
6581;DHT22;3324;50.796;7.228;2024-02-16T01:58:47;13.20;99.90
6581;DHT22;3324;50.796;7.228;2024-02-16T02:01:13;13.20;99.90
6581;DHT22;3324;50.796;7.228;2024-02-16T02:03:38;13.30;99.90
6581;DHT22;3324;50.796;7.228;2024-02-16T02:06:04;13.30;99.90
6581;DHT22;3324;50.796;7.228;2024-02-16T02:08:29;13.20;99.90
6581;DHT22;3324;50.796;7.228;2024-02-16T02:10:57;13.20;99.90
6581;DHT22;3324;50.796;7.228;2024-02-16T02:13:22;13.20;99.90
6581;DHT22;3324;50.796;7.228;2024-02-16T02:15:48;13.20;99.90
6581;DHT22;3324;50.796;7.228;2024-02-16T02:18:13;13.20;99.90
6581;DHT22;3324;50.796;7.228;2024-02-16T02:20:39;13.30;99.90
6581;DHT22;3324;50.796;7.228;2024-02-16T02:23:05;13.30;99.90
6581;DHT22;3324;50.796;7.228;2024-02-16T02:25:30;13.30;99.90
6581;DHT22;3324;50.796;7.228;2024-02-16T02:27:56;13.30;99.90
6581;DHT22;3324;50.796;7.228;2024-02-16T02:30:21;13.40;99.90
6581;DHT22;3324;50.796;7.228;2024-02-16T02:32:47;13.30;99.90
6581;DHT22;3324;50.796;7.228;2024-02-16T02:35:16;13.30;99.90
6581;DHT22;3324;50.796;7.228;2024-02-16T02:37:42;13.30;99.90
6581;DHT22;3324;50.796;7.228;2024-02-16T02:40:08;13.30;99.90
6581;DHT22;3324;50.796;7.228;2024-02-16T02:42:34;13.30;99.90
6581;DHT22;3324;50.796;7.228;2024-02-16T02:45:00;13.30;99.90
6581;DHT22;3324;50.796;7.228;2024-02-16T02:47:25;13.30;99.90
6581;DHT22;3324;50.796;7.228;2024-02-16T02:49:51;13.20;99.90
6581;DHT22;3324;50.796;7.228;2024-02-16T02:52:16;13.30;99.90
6581;DHT22;3324;50.796;7.228;2024-02-16T02:54:42;13.20;99.90
6581;DHT22;3324;50.796;7.228;2024-02-16T02:57:08;13.20;99.90
6581;DHT22;3324;50.796;7.228;2024-02-16T02:59:33;13.20;99.90
6581;DHT22;3324;50.796;7.228;2024-02-16T03:01:59;13.20;99.90
6581;DHT22;3324;50.796;7.228;2024-02-16T03:04:24;13.20;99.90
6581;DHT22;3324;50.796;7.228;2024-02-16T03:06:51;13.30;99.90
6581;DHT22;3324;50.796;7.228;2024-02-16T03:09:17;13.30;99.90
6581;DHT22;3324;50.796;7.228;2024-02-16T03:11:42;13.40;99.90
6581;DHT22;3324;50.796;7.228;2024-02-16T03:14:08;13.40;99.90
6581;DHT22;3324;50.796;7.228;2024-02-16T03:16:33;13.40;99.90
6581;DHT22;3324;50.796;7.228;2024-02-16T03:18:59;13.40;99.90
6581;DHT22;3324;50.796;7.228;2024-02-16T03:21:25;13.50;99.90
6581;DHT22;3324;50.796;7.228;2024-02-16T03:23:50;13.50;99.90
6581;DHT22;3324;50.796;7.228;2024-02-16T03:26:16;13.40;99.90
6581;DHT22;3324;50.796;7.228;2024-02-16T03:28:45;13.50;99.90
6581;DHT22;3324;50.796;7.228;2024-02-16T03:31:19;13.40;99.90
6581;DHT22;3324;50.796;7.228;2024-02-16T03:33:44;13.40;99.90
6581;DHT22;3324;50.796;7.228;2024-02-16T03:36:10;13.30;99.90
6581;DHT22;3324;50.796;7.228;2024-02-16T03:38:37;13.20;99.90
6581;DHT22;3324;50.796;7.228;2024-02-16T03:41:03;13.20;99.90
6581;DHT22;3324;50.796;7.228;2024-02-16T03:43:29;13.20;99.90
6581;DHT22;3324;50.796;7.228;2024-02-16T03:45:55;13.30;99.90
6581;DHT22;3324;50.796;7.228;2024-02-16T03:48:20;13.20;99.90
6581;DHT22;3324;50.796;7.228;2024-02-16T03:50:46;13.20;99.90
6581;DHT22;3324;50.796;7.228;2024-02-16T03:53:11;13.20;99.90
6581;DHT22;3324;50.796;7.228;2024-02-16T03:55:37;13.10;99.90
6581;DHT22;3324;50.796;7.228;2024-02-16T03:58:03;13.10;99.90
6581;DHT22;3324;50.796;7.228;2024-02-16T04:00:29;13.10;99.90
6581;DHT22;3324;50.796;7.228;2024-02-16T04:02:54;13.00;99.90
6581;DHT22;3324;50.796;7.228;2024-02-16T04:05:20;13.00;99.90
6581;DHT22;3324;50.796;7.228;2024-02-16T04:07:45;13.00;99.90
6581;DHT22;3324;50.796;7.228;2024-02-16T04:10:11;12.90;99.90
6581;DHT22;3324;50.796;7.228;2024-02-16T04:12:36;12.90;99.90
6581;DHT22;3324;50.796;7.228;2024-02-16T04:15:02;12.90;99.90
6581;DHT22;3324;50.796;7.228;2024-02-16T04:17:33;12.90;99.90
6581;DHT22;3324;50.796;7.228;2024-02-16T04:20:04;13.00;99.90
6581;DHT22;3324;50.796;7.228;2024-02-16T04:22:30;13.00;99.90
6581;DHT22;3324;50.796;7.228;2024-02-16T04:24:55;12.90;99.90
6581;DHT22;3324;50.796;7.228;2024-02-16T04:27:21;13.00;99.90
6581;DHT22;3324;50.796;7.228;2024-02-16T04:29:46;12.90;99.90
6581;DHT22;3324;50.796;7.228;2024-02-16T04:32:12;13.00;99.90
6581;DHT22;3324;50.796;7.228;2024-02-16T04:34:37;13.00;99.90
6581;DHT22;3324;50.796;7.228;2024-02-16T04:37:03;12.90;99.90
6581;DHT22;3324;50.796;7.228;2024-02-16T04:39:28;13.00;99.90
6581;DHT22;3324;50.796;7.228;2024-02-16T04:41:55;12.90;99.90
6581;DHT22;3324;50.796;7.228;2024-02-16T04:44:20;13.00;99.90
6581;DHT22;3324;50.796;7.228;2024-02-16T04:46:46;13.00;99.90
6581;DHT22;3324;50.796;7.228;2024-02-16T04:49:11;12.90;99.90
6581;DHT22;3324;50.796;7.228;2024-02-16T04:51:37;12.90;99.90
6581;DHT22;3324;50.796;7.228;2024-02-16T04:54:04;12.90;99.90
6581;DHT22;3324;50.796;7.228;2024-02-16T04:56:30;12.90;99.90
6581;DHT22;3324;50.796;7.228;2024-02-16T04:58:57;12.80;99.90
6581;DHT22;3324;50.796;7.228;2024-02-16T05:01:23;12.80;99.90
6581;DHT22;3324;50.796;7.228;2024-02-16T05:03:49;12.80;99.90
6581;DHT22;3324;50.796;7.228;2024-02-16T05:06:15;12.80;99.90
6581;DHT22;3324;50.796;7.228;2024-02-16T05:08:40;12.70;99.90
6581;DHT22;3324;50.796;7.228;2024-02-16T05:11:06;12.80;99.90
6581;DHT22;3324;50.796;7.228;2024-02-16T05:13:32;12.80;99.90
6581;DHT22;3324;50.796;7.228;2024-02-16T05:15:58;12.80;99.90
6581;DHT22;3324;50.796;7.228;2024-02-16T05:18:23;12.80;99.90
6581;DHT22;3324;50.796;7.228;2024-02-16T05:20:50;12.80;99.90
6581;DHT22;3324;50.796;7.228;2024-02-16T05:23:15;12.70;99.90
6581;DHT22;3324;50.796;7.228;2024-02-16T05:25:41;12.80;99.90
6581;DHT22;3324;50.796;7.228;2024-02-16T05:28:06;12.80;99.90
6581;DHT22;3324;50.796;7.228;2024-02-16T05:30:32;12.80;99.90
6581;DHT22;3324;50.796;7.228;2024-02-16T05:32:57;12.80;99.90
6581;DHT22;3324;50.796;7.228;2024-02-16T05:35:24;12.80;99.90
6581;DHT22;3324;50.796;7.228;2024-02-16T05:37:52;12.80;99.90
6581;DHT22;3324;50.796;7.228;2024-02-16T05:40:18;12.80;99.90
6581;DHT22;3324;50.796;7.228;2024-02-16T05:42:46;12.80;99.90
6581;DHT22;3324;50.796;7.228;2024-02-16T05:45:13;12.80;99.90
6581;DHT22;3324;50.796;7.228;2024-02-16T05:47:38;12.80;99.90
6581;DHT22;3324;50.796;7.228;2024-02-16T05:50:04;12.80;99.90
6581;DHT22;3324;50.796;7.228;2024-02-16T05:52:30;13.00;99.90
6581;DHT22;3324;50.796;7.228;2024-02-16T05:54:55;12.90;99.90
6581;DHT22;3324;50.796;7.228;2024-02-16T05:57:21;12.90;99.90
6581;DHT22;3324;50.796;7.228;2024-02-16T05:59:46;13.00;99.90
6581;DHT22;3324;50.796;7.228;2024-02-16T06:02:12;13.10;99.90
6581;DHT22;3324;50.796;7.228;2024-02-16T06:04:38;13.10;99.90
6581;DHT22;3324;50.796;7.228;2024-02-16T06:07:04;13.10;99.90
6581;DHT22;3324;50.796;7.228;2024-02-16T06:09:30;13.20;99.90
6581;DHT22;3324;50.796;7.228;2024-02-16T06:12:02;13.20;99.90
6581;DHT22;3324;50.796;7.228;2024-02-16T06:14:32;13.20;99.90
6581;DHT22;3324;50.796;7.228;2024-02-16T06:16:58;13.20;99.90
6581;DHT22;3324;50.796;7.228;2024-02-16T06:19:24;13.30;99.90
6581;DHT22;3324;50.796;7.228;2024-02-16T06:21:50;13.30;99.90
6581;DHT22;3324;50.796;7.228;2024-02-16T06:24:15;13.30;99.90
6581;DHT22;3324;50.796;7.228;2024-02-16T06:26:41;13.30;99.90
6581;DHT22;3324;50.796;7.228;2024-02-16T06:29:06;13.30;99.90
6581;DHT22;3324;50.796;7.228;2024-02-16T06:31:32;13.40;99.90
6581;DHT22;3324;50.796;7.228;2024-02-16T06:33:57;13.30;99.90
6581;DHT22;3324;50.796;7.228;2024-02-16T06:36:23;13.30;99.90
6581;DHT22;3324;50.796;7.228;2024-02-16T06:38:48;13.30;99.90
6581;DHT22;3324;50.796;7.228;2024-02-16T06:41:14;13.30;99.90
6581;DHT22;3324;50.796;7.228;2024-02-16T06:43:39;13.30;99.90
6581;DHT22;3324;50.796;7.228;2024-02-16T06:46:05;13.30;99.90
6581;DHT22;3324;50.796;7.228;2024-02-16T06:48:30;13.30;99.90
6581;DHT22;3324;50.796;7.228;2024-02-16T06:50:56;13.30;99.90
6581;DHT22;3324;50.796;7.228;2024-02-16T06:53:21;13.30;99.90
6581;DHT22;3324;50.796;7.228;2024-02-16T06:55:47;13.30;99.90
6581;DHT22;3324;50.796;7.228;2024-02-16T06:58:12;13.30;99.90
6581;DHT22;3324;50.796;7.228;2024-02-16T07:00:38;13.30;99.90
6581;DHT22;3324;50.796;7.228;2024-02-16T07:03:07;13.30;99.90
6581;DHT22;3324;50.796;7.228;2024-02-16T07:05:32;13.30;99.90
6581;DHT22;3324;50.796;7.228;2024-02-16T07:07:58;13.30;99.90
6581;DHT22;3324;50.796;7.228;2024-02-16T07:10:24;13.30;99.90
6581;DHT22;3324;50.796;7.228;2024-02-16T07:12:49;13.30;99.90
6581;DHT22;3324;50.796;7.228;2024-02-16T07:15:15;13.30;99.90
6581;DHT22;3324;50.796;7.228;2024-02-16T07:17:43;13.30;99.90
6581;DHT22;3324;50.796;7.228;2024-02-16T07:20:10;13.30;99.90
6581;DHT22;3324;50.796;7.228;2024-02-16T07:22:35;13.30;99.90
6581;DHT22;3324;50.796;7.228;2024-02-16T07:25:01;13.30;99.90
6581;DHT22;3324;50.796;7.228;2024-02-16T07:27:27;13.30;99.90
6581;DHT22;3324;50.796;7.228;2024-02-16T07:29:52;13.30;99.90
6581;DHT22;3324;50.796;7.228;2024-02-16T07:32:18;13.30;99.90
6581;DHT22;3324;50.796;7.228;2024-02-16T07:34:46;13.40;99.90
6581;DHT22;3324;50.796;7.228;2024-02-16T07:37:13;13.20;99.90
6581;DHT22;3324;50.796;7.228;2024-02-16T07:39:38;13.20;99.90
6581;DHT22;3324;50.796;7.228;2024-02-16T07:42:04;13.20;99.90
6581;DHT22;3324;50.796;7.228;2024-02-16T07:44:29;13.20;99.90
6581;DHT22;3324;50.796;7.228;2024-02-16T07:46:55;13.30;99.90
6581;DHT22;3324;50.796;7.228;2024-02-16T07:49:21;13.20;99.90
6581;DHT22;3324;50.796;7.228;2024-02-16T07:51:47;13.30;99.90
6581;DHT22;3324;50.796;7.228;2024-02-16T07:54:12;13.20;99.90
6581;DHT22;3324;50.796;7.228;2024-02-16T07:56:39;13.20;99.90
6581;DHT22;3324;50.796;7.228;2024-02-16T07:59:04;13.20;99.90
6581;DHT22;3324;50.796;7.228;2024-02-16T08:01:30;13.20;99.90
6581;DHT22;3324;50.796;7.228;2024-02-16T08:03:56;13.20;99.90
6581;DHT22;3324;50.796;7.228;2024-02-16T08:06:25;13.20;99.90
6581;DHT22;3324;50.796;7.228;2024-02-16T08:08:50;13.30;99.90
6581;DHT22;3324;50.796;7.228;2024-02-16T08:11:16;13.30;99.90
6581;DHT22;3324;50.796;7.228;2024-02-16T08:13:41;13.40;99.90
6581;DHT22;3324;50.796;7.228;2024-02-16T08:16:07;13.40;99.90
6581;DHT22;3324;50.796;7.228;2024-02-16T08:18:35;13.40;99.90
6581;DHT22;3324;50.796;7.228;2024-02-16T08:21:01;13.40;99.90
6581;DHT22;3324;50.796;7.228;2024-02-16T08:23:27;13.40;99.90
6581;DHT22;3324;50.796;7.228;2024-02-16T08:25:52;13.40;99.90
6581;DHT22;3324;50.796;7.228;2024-02-16T08:28:18;13.40;99.90
6581;DHT22;3324;50.796;7.228;2024-02-16T08:30:43;13.40;99.90
6581;DHT22;3324;50.796;7.228;2024-02-16T08:33:12;13.40;99.90
6581;DHT22;3324;50.796;7.228;2024-02-16T08:35:40;13.40;99.90
6581;DHT22;3324;50.796;7.228;2024-02-16T08:38:06;13.40;99.90
6581;DHT22;3324;50.796;7.228;2024-02-16T08:40:36;13.50;99.90
6581;DHT22;3324;50.796;7.228;2024-02-16T08:43:02;13.50;99.90
6581;DHT22;3324;50.796;7.228;2024-02-16T08:45:28;13.50;99.90
6581;DHT22;3324;50.796;7.228;2024-02-16T08:47:53;13.50;99.90
6581;DHT22;3324;50.796;7.228;2024-02-16T08:50:19;13.60;99.90
6581;DHT22;3324;50.796;7.228;2024-02-16T08:52:45;13.60;99.90
6581;DHT22;3324;50.796;7.228;2024-02-16T08:55:10;13.70;99.90
6581;DHT22;3324;50.796;7.228;2024-02-16T08:57:36;13.70;99.90
6581;DHT22;3324;50.796;7.228;2024-02-16T09:00:02;13.70;99.90
6581;DHT22;3324;50.796;7.228;2024-02-16T09:02:28;13.70;99.90
6581;DHT22;3324;50.796;7.228;2024-02-16T09:04:54;13.60;99.90
6581;DHT22;3324;50.796;7.228;2024-02-16T09:07:19;13.60;99.90
6581;DHT22;3324;50.796;7.228;2024-02-16T09:09:45;13.70;99.90
6581;DHT22;3324;50.796;7.228;2024-02-16T09:12:11;13.60;99.90
6581;DHT22;3324;50.796;7.228;2024-02-16T09:14:36;13.60;99.90
6581;DHT22;3324;50.796;7.228;2024-02-16T09:17:02;13.70;99.90
6581;DHT22;3324;50.796;7.228;2024-02-16T09:19:27;13.70;99.90
6581;DHT22;3324;50.796;7.228;2024-02-16T09:21:53;13.70;99.90
6581;DHT22;3324;50.796;7.228;2024-02-16T09:24:19;13.70;99.90
6581;DHT22;3324;50.796;7.228;2024-02-16T09:26:45;13.70;99.90
6581;DHT22;3324;50.796;7.228;2024-02-16T09:29:13;13.70;99.90
6581;DHT22;3324;50.796;7.228;2024-02-16T09:31:40;13.70;99.90
6581;DHT22;3324;50.796;7.228;2024-02-16T09:34:05;13.80;99.90
6581;DHT22;3324;50.796;7.228;2024-02-16T09:36:31;13.70;99.90
6581;DHT22;3324;50.796;7.228;2024-02-16T09:38:56;13.80;99.90
6581;DHT22;3324;50.796;7.228;2024-02-16T09:41:22;13.80;99.90
6581;DHT22;3324;50.796;7.228;2024-02-16T09:43:48;13.80;99.90
6581;DHT22;3324;50.796;7.228;2024-02-16T09:46:13;13.80;99.90
6581;DHT22;3324;50.796;7.228;2024-02-16T09:48:40;13.70;99.90
6581;DHT22;3324;50.796;7.228;2024-02-16T09:51:06;13.80;99.90
6581;DHT22;3324;50.796;7.228;2024-02-16T09:53:33;13.70;99.90
6581;DHT22;3324;50.796;7.228;2024-02-16T09:55:58;13.70;99.90
6581;DHT22;3324;50.796;7.228;2024-02-16T09:58:24;13.70;99.90
6581;DHT22;3324;50.796;7.228;2024-02-16T10:03:21;13.70;99.90
6581;DHT22;3324;50.796;7.228;2024-02-16T10:05:47;13.70;99.90
6581;DHT22;3324;50.796;7.228;2024-02-16T10:08:12;13.80;99.90
6581;DHT22;3324;50.796;7.228;2024-02-16T10:10:38;13.90;99.90
6581;DHT22;3324;50.796;7.228;2024-02-16T10:13:04;13.90;99.90
6581;DHT22;3324;50.796;7.228;2024-02-16T10:15:30;13.90;99.90
6581;DHT22;3324;50.796;7.228;2024-02-16T10:18:05;13.80;99.90
6581;DHT22;3324;50.796;7.228;2024-02-16T10:20:31;13.80;99.90
6581;DHT22;3324;50.796;7.228;2024-02-16T10:25:32;13.80;99.90
6581;DHT22;3324;50.796;7.228;2024-02-16T10:27:57;13.80;99.90
6581;DHT22;3324;50.796;7.228;2024-02-16T10:30:28;13.80;99.90
6581;DHT22;3324;50.796;7.228;2024-02-16T10:32:54;13.80;99.90
6581;DHT22;3324;50.796;7.228;2024-02-16T10:35:20;13.70;99.90
6581;DHT22;3324;50.796;7.228;2024-02-16T10:37:46;13.70;99.90
6581;DHT22;3324;50.796;7.228;2024-02-16T10:40:13;13.80;99.90
6581;DHT22;3324;50.796;7.228;2024-02-16T10:42:39;13.80;99.90
6581;DHT22;3324;50.796;7.228;2024-02-16T10:45:05;13.70;99.90
6581;DHT22;3324;50.796;7.228;2024-02-16T10:47:31;13.70;99.90
6581;DHT22;3324;50.796;7.228;2024-02-16T10:49:56;13.70;99.90
6581;DHT22;3324;50.796;7.228;2024-02-16T10:52:22;13.70;99.90
6581;DHT22;3324;50.796;7.228;2024-02-16T10:54:47;13.70;99.90
6581;DHT22;3324;50.796;7.228;2024-02-16T10:57:13;13.70;99.90
6581;DHT22;3324;50.796;7.228;2024-02-16T10:59:43;13.70;99.90
6581;DHT22;3324;50.796;7.228;2024-02-16T11:02:13;13.70;99.90
6581;DHT22;3324;50.796;7.228;2024-02-16T11:04:39;13.70;99.90
6581;DHT22;3324;50.796;7.228;2024-02-16T11:07:11;13.80;99.90
6581;DHT22;3324;50.796;7.228;2024-02-16T11:09:38;13.80;99.90
6581;DHT22;3324;50.796;7.228;2024-02-16T11:12:04;13.90;99.90
6581;DHT22;3324;50.796;7.228;2024-02-16T11:14:37;13.90;99.90
6581;DHT22;3324;50.796;7.228;2024-02-16T11:17:12;13.80;99.90
6581;DHT22;3324;50.796;7.228;2024-02-16T11:19:45;13.80;99.90
6581;DHT22;3324;50.796;7.228;2024-02-16T11:22:14;13.90;99.90
6581;DHT22;3324;50.796;7.228;2024-02-16T11:24:43;13.90;99.90
6581;DHT22;3324;50.796;7.228;2024-02-16T11:27:10;13.80;99.90
6581;DHT22;3324;50.796;7.228;2024-02-16T11:29:36;13.80;99.90
6581;DHT22;3324;50.796;7.228;2024-02-16T11:32:02;13.80;99.90
6581;DHT22;3324;50.796;7.228;2024-02-16T11:34:28;13.80;99.90
6581;DHT22;3324;50.796;7.228;2024-02-16T11:36:54;13.80;99.90
6581;DHT22;3324;50.796;7.228;2024-02-16T11:39:20;13.90;99.90
6581;DHT22;3324;50.796;7.228;2024-02-16T11:41:46;13.80;99.90
6581;DHT22;3324;50.796;7.228;2024-02-16T11:44:15;13.90;99.90
6581;DHT22;3324;50.796;7.228;2024-02-16T11:46:43;13.90;99.90
6581;DHT22;3324;50.796;7.228;2024-02-16T11:49:09;13.90;99.90
6581;DHT22;3324;50.796;7.228;2024-02-16T11:51:35;13.90;99.90
6581;DHT22;3324;50.796;7.228;2024-02-16T11:54:01;13.90;99.90
6581;DHT22;3324;50.796;7.228;2024-02-16T11:56:26;13.90;99.90
6581;DHT22;3324;50.796;7.228;2024-02-16T11:58:52;13.90;99.90
6581;DHT22;3324;50.796;7.228;2024-02-16T12:01:18;13.90;99.90
6581;DHT22;3324;50.796;7.228;2024-02-16T12:03:43;14.00;99.90
6581;DHT22;3324;50.796;7.228;2024-02-16T12:06:09;14.00;99.90
6581;DHT22;3324;50.796;7.228;2024-02-16T12:08:44;14.10;99.90
6581;DHT22;3324;50.796;7.228;2024-02-16T12:11:09;14.20;99.90
6581;DHT22;3324;50.796;7.228;2024-02-16T12:13:35;14.20;99.90
6581;DHT22;3324;50.796;7.228;2024-02-16T12:16:01;14.30;99.90
6581;DHT22;3324;50.796;7.228;2024-02-16T12:18:27;14.30;99.90
6581;DHT22;3324;50.796;7.228;2024-02-16T12:21:05;14.30;99.90
6581;DHT22;3324;50.796;7.228;2024-02-16T12:23:31;14.40;99.90
6581;DHT22;3324;50.796;7.228;2024-02-16T12:25:57;14.50;99.90
6581;DHT22;3324;50.796;7.228;2024-02-16T12:28:24;14.50;99.90
6581;DHT22;3324;50.796;7.228;2024-02-16T12:30:49;14.60;99.90
6581;DHT22;3324;50.796;7.228;2024-02-16T12:33:15;14.60;99.90
6581;DHT22;3324;50.796;7.228;2024-02-16T12:35:41;14.60;99.90
6581;DHT22;3324;50.796;7.228;2024-02-16T12:38:07;14.60;99.90
6581;DHT22;3324;50.796;7.228;2024-02-16T12:40:32;14.70;99.90
6581;DHT22;3324;50.796;7.228;2024-02-16T12:42:58;14.60;99.90
6581;DHT22;3324;50.796;7.228;2024-02-16T12:45:23;14.60;99.90
6581;DHT22;3324;50.796;7.228;2024-02-16T12:47:49;14.50;99.90
6581;DHT22;3324;50.796;7.228;2024-02-16T12:50:16;14.50;99.90
6581;DHT22;3324;50.796;7.228;2024-02-16T12:52:42;14.40;99.90
6581;DHT22;3324;50.796;7.228;2024-02-16T12:55:08;14.40;99.90
6581;DHT22;3324;50.796;7.228;2024-02-16T12:57:36;14.40;99.90
6581;DHT22;3324;50.796;7.228;2024-02-16T13:00:01;14.50;99.90
6581;DHT22;3324;50.796;7.228;2024-02-16T13:02:28;14.40;99.90
6581;DHT22;3324;50.796;7.228;2024-02-16T13:04:54;14.40;99.90
6581;DHT22;3324;50.796;7.228;2024-02-16T13:07:20;14.40;99.90
6581;DHT22;3324;50.796;7.228;2024-02-16T13:09:45;14.40;99.90
6581;DHT22;3324;50.796;7.228;2024-02-16T13:12:11;14.40;99.90
6581;DHT22;3324;50.796;7.228;2024-02-16T13:14:36;14.40;99.90
6581;DHT22;3324;50.796;7.228;2024-02-16T13:17:02;14.40;99.90
6581;DHT22;3324;50.796;7.228;2024-02-16T13:19:27;14.40;99.90
6581;DHT22;3324;50.796;7.228;2024-02-16T13:21:53;14.40;99.90
6581;DHT22;3324;50.796;7.228;2024-02-16T13:24:18;14.40;99.90
6581;DHT22;3324;50.796;7.228;2024-02-16T13:26:44;14.30;99.90
6581;DHT22;3324;50.796;7.228;2024-02-16T13:29:10;14.40;99.90
6581;DHT22;3324;50.796;7.228;2024-02-16T13:31:36;14.50;99.90
6581;DHT22;3324;50.796;7.228;2024-02-16T13:34:01;14.50;99.90
6581;DHT22;3324;50.796;7.228;2024-02-16T13:36:27;14.60;99.90
6581;DHT22;3324;50.796;7.228;2024-02-16T13:38:52;14.60;99.90
6581;DHT22;3324;50.796;7.228;2024-02-16T13:41:18;14.60;99.90
6581;DHT22;3324;50.796;7.228;2024-02-16T13:43:43;14.60;99.90
6581;DHT22;3324;50.796;7.228;2024-02-16T13:46:09;14.50;99.90
6581;DHT22;3324;50.796;7.228;2024-02-16T13:48:34;14.50;99.90
6581;DHT22;3324;50.796;7.228;2024-02-16T13:51:02;14.50;99.90
6581;DHT22;3324;50.796;7.228;2024-02-16T13:53:28;14.50;99.90
6581;DHT22;3324;50.796;7.228;2024-02-16T13:55:54;14.50;99.90
6581;DHT22;3324;50.796;7.228;2024-02-16T13:58:20;14.40;99.90
6581;DHT22;3324;50.796;7.228;2024-02-16T14:00:46;14.40;99.90
6581;DHT22;3324;50.796;7.228;2024-02-16T14:03:12;14.30;99.90
6581;DHT22;3324;50.796;7.228;2024-02-16T14:05:38;14.30;99.90
6581;DHT22;3324;50.796;7.228;2024-02-16T14:08:04;14.30;99.90
6581;DHT22;3324;50.796;7.228;2024-02-16T14:10:30;14.20;99.90
6581;DHT22;3324;50.796;7.228;2024-02-16T14:12:57;14.10;99.90
6581;DHT22;3324;50.796;7.228;2024-02-16T14:15:23;14.20;99.90
6581;DHT22;3324;50.796;7.228;2024-02-16T14:17:48;14.30;99.90
6581;DHT22;3324;50.796;7.228;2024-02-16T14:20:14;14.20;99.90
6581;DHT22;3324;50.796;7.228;2024-02-16T14:22:39;14.30;99.90
6581;DHT22;3324;50.796;7.228;2024-02-16T14:25:05;14.20;99.90
6581;DHT22;3324;50.796;7.228;2024-02-16T14:27:30;14.00;99.90
6581;DHT22;3324;50.796;7.228;2024-02-16T14:29:56;14.00;99.90
6581;DHT22;3324;50.796;7.228;2024-02-16T14:32:22;14.00;99.90
6581;DHT22;3324;50.796;7.228;2024-02-16T14:34:47;13.90;99.90
6581;DHT22;3324;50.796;7.228;2024-02-16T14:37:13;14.00;99.90
6581;DHT22;3324;50.796;7.228;2024-02-16T14:39:38;13.90;99.90
6581;DHT22;3324;50.796;7.228;2024-02-16T14:42:04;13.90;99.90
6581;DHT22;3324;50.796;7.228;2024-02-16T14:44:30;13.90;99.90
6581;DHT22;3324;50.796;7.228;2024-02-16T14:46:55;13.90;99.90
6581;DHT22;3324;50.796;7.228;2024-02-16T14:49:22;13.90;99.90
6581;DHT22;3324;50.796;7.228;2024-02-16T14:51:52;13.90;99.90
6581;DHT22;3324;50.796;7.228;2024-02-16T14:54:21;13.90;99.90
6581;DHT22;3324;50.796;7.228;2024-02-16T14:56:46;13.90;99.90
6581;DHT22;3324;50.796;7.228;2024-02-16T14:59:12;13.80;99.90
6581;DHT22;3324;50.796;7.228;2024-02-16T15:01:38;13.90;99.90
6581;DHT22;3324;50.796;7.228;2024-02-16T15:04:04;13.80;99.90
6581;DHT22;3324;50.796;7.228;2024-02-16T15:06:30;13.80;99.90
6581;DHT22;3324;50.796;7.228;2024-02-16T15:08:58;13.80;99.90
6581;DHT22;3324;50.796;7.228;2024-02-16T15:11:24;13.80;99.90
6581;DHT22;3324;50.796;7.228;2024-02-16T15:13:49;13.80;99.90
6581;DHT22;3324;50.796;7.228;2024-02-16T15:16:15;13.80;99.90
6581;DHT22;3324;50.796;7.228;2024-02-16T15:18:41;13.70;99.90
6581;DHT22;3324;50.796;7.228;2024-02-16T15:21:06;13.70;99.90
6581;DHT22;3324;50.796;7.228;2024-02-16T15:23:32;13.70;99.90
6581;DHT22;3324;50.796;7.228;2024-02-16T15:25:57;13.70;99.90
6581;DHT22;3324;50.796;7.228;2024-02-16T15:28:24;13.80;99.90
6581;DHT22;3324;50.796;7.228;2024-02-16T15:30:50;13.70;99.90
6581;DHT22;3324;50.796;7.228;2024-02-16T15:33:15;13.70;99.90
6581;DHT22;3324;50.796;7.228;2024-02-16T15:35:41;13.70;99.90
6581;DHT22;3324;50.796;7.228;2024-02-16T15:38:06;13.80;99.90
6581;DHT22;3324;50.796;7.228;2024-02-16T15:40:33;13.80;99.90
6581;DHT22;3324;50.796;7.228;2024-02-16T15:42:59;13.80;99.90
6581;DHT22;3324;50.796;7.228;2024-02-16T15:45:26;13.80;99.90
6581;DHT22;3324;50.796;7.228;2024-02-16T15:47:52;13.80;99.90
6581;DHT22;3324;50.796;7.228;2024-02-16T15:50:17;13.70;99.90
6581;DHT22;3324;50.796;7.228;2024-02-16T15:52:43;13.70;99.90
6581;DHT22;3324;50.796;7.228;2024-02-16T15:55:08;13.70;99.90
6581;DHT22;3324;50.796;7.228;2024-02-16T15:57:34;13.70;99.90
6581;DHT22;3324;50.796;7.228;2024-02-16T15:59:59;13.70;99.90